Bush, Illinois
Current Conditions -  °F | °C
As of 7:52 AM on Friday 24 Oct 2014 (Local Time) from KMDH Reporting Station
Overcast Overcast  
Wind Chill: 53°   Ceiling: 1700
Heat Index: 53°   Visibility: 10mi
Dew Point: 48°   Wind: 3mph
Humidity: 83%   Direction: 200°SSW
Pressure: 30.12"   Gusts: NA
Location:  37.8209°N, 89.2055°W
Report Text: KMDH 241252Z 20003KT 10SM OVC017 12/09 A3012 RMK AO2 SLP200 T01170089
Loading
Personal Weather Stations






























Interactive Weather Map New forecast layout! Learn more

10-Day Weather Forecast

Advertisements
Track Severe Weather on mobile